Wetterdaten: Woche 28.04.08 - 04.05.08 (KW18)
Datum Zeit Temperatur Luftfeuchte Luftdruck Niederschlag Wind Richtung Sonnenschein Solar Taupunkt Windchill Windben
28.04.2008 00:00 11.5 C 84 % 1014.6 hPa 0.0 l/m 1.4 km/h (1 Bft) O-SO 0.00 h 0 W/m 8.9 C 11.5 C 2.5 km/h (1 Bft)
28.04.2008 01:00 10.9 C 87 % 1014.5 hPa 0.0 l/m 1.6 km/h (1 Bft) O-SO 0.00 h 0 W/m 8.8 C 10.9 C 2.5 km/h (1 Bft)
28.04.2008 02:00 10.7 C 89 % 1013.7 hPa 0.0 l/m 2.4 km/h (1 Bft) SO 0.00 h 0 W/m 8.9 C 10.7 C 3.3 km/h (1 Bft)
28.04.2008 03:00 10.9 C 88 % 1013.2 hPa 0.0 l/m 0.7 km/h (0 Bft) SO 0.00 h 0 W/m 9.0 C 10.9 C 1.3 km/h (1 Bft)
28.04.2008 04:00 10.6 C 91 % 1012.8 hPa 0.0 l/m 0.2 km/h (0 Bft) SO 0.00 h 0 W/m 9.2 C 10.6 C 0.6 km/h (0 Bft)
28.04.2008 05:00 10.5 C 93 % 1012.3 hPa 0.0 l/m 0.1 km/h (0 Bft) SO 0.00 h 0 W/m 9.4 C 10.5 C 0.7 km/h (0 Bft)
28.04.2008 06:00 9.8 C 94 % 1011.8 hPa 0.0 l/m 0.2 km/h (0 Bft) SO 0.15 h 23 W/m 8.9 C 9.8 C 0.9 km/h (0 Bft)
28.04.2008 07:00 10.3 C 91 % 1012.0 hPa 0.0 l/m 0.0 km/h (0 Bft) SO 0.05 h 70 W/m 8.8 C 10.3 C 0.4 km/h (0 Bft)
28.04.2008 08:00 12.1 C 85 % 1011.8 hPa 0.0 l/m 0.1 km/h (0 Bft) SO 0.50 h 246 W/m 9.6 C 12.1 C 0.4 km/h (0 Bft)
28.04.2008 09:00 14.3 C 70 % 1011.3 hPa 0.0 l/m 0.5 km/h (0 Bft) SO 0.13 h 206 W/m 8.9 C 14.3 C 1.6 km/h (1 Bft)
28.04.2008 10:00 17.3 C 55 % 1010.7 hPa 0.0 l/m 2.9 km/h (1 Bft) W 1.00 h 618 W/m 8.2 C 17.3 C 5.8 km/h (2 Bft)
28.04.2008 11:00 19.1 C 48 % 1009.7 hPa 0.0 l/m 5.0 km/h (1 Bft) W-NW 0.72 h 657 W/m 7.8 C 19.1 C 8.6 km/h (2 Bft)
28.04.2008 12:00 20.1 C 45 % 1008.9 hPa 0.0 l/m 8.6 km/h (2 Bft) W 0.72 h 660 W/m 7.6 C 20.1 C 13.7 km/h (3 Bft)
28.04.2008 13:00 18.8 C 45 % 1008.7 hPa 0.0 l/m 16.8 km/h (3 Bft) W 0.37 h 466 W/m 6.7 C 18.8 C 25.0 km/h (4 Bft)
28.04.2008 14:00 15.8 C 61 % 1009.4 hPa 0.2 l/m 13.1 km/h (3 Bft) W 0.05 h 230 W/m 8.2 C 15.8 C 20.2 km/h (4 Bft)
28.04.2008 15:00 13.1 C 83 % 1010.1 hPa 0.4 l/m 4.9 km/h (1 Bft) W-NW 0.00 h 109 W/m 10.3 C 13.1 C 8.0 km/h (2 Bft)
28.04.2008 16:00 12.6 C 91 % 1009.9 hPa 0.8 l/m 0.2 km/h (0 Bft) W-NW 0.00 h 83 W/m 11.2 C 12.6 C 1.0 km/h (0 Bft)
28.04.2008 17:00 13.0 C 94 % 1009.6 hPa 0.4 l/m 1.1 km/h (1 Bft) S-SO 0.00 h 92 W/m 12.0 C 13.0 C 3.2 km/h (1 Bft)
28.04.2008 18:00 12.4 C 92 % 1009.2 hPa 0.4 l/m 2.2 km/h (1 Bft) S-SO 0.00 h 71 W/m 11.1 C 12.4 C 5.3 km/h (1 Bft)
28.04.2008 19:00 12.0 C 91 % 1008.8 hPa 0.0 l/m 5.0 km/h (1 Bft) S 0.00 h 43 W/m 10.6 C 12.0 C 9.6 km/h (2 Bft)
28.04.2008 20:00 11.7 C 90 % 1008.4 hPa 0.0 l/m 4.6 km/h (1 Bft) S 0.00 h 7 W/m 10.0 C 11.7 C 9.5 km/h (2 Bft)
28.04.2008 21:00 11.2 C 92 % 1008.4 hPa 0.2 l/m 4.5 km/h (1 Bft) S-SO 0.00 h 0 W/m 9.9 C 11.2 C 8.9 km/h (2 Bft)
28.04.2008 22:00 10.9 C 94 % 1008.4 hPa 1.0 l/m 4.3 km/h (1 Bft) S-SO 0.00 h 0 W/m 9.9 C 10.9 C 7.7 km/h (2 Bft)
28.04.2008 23:00 10.5 C 97 % 1008.2 hPa 1.6 l/m 1.0 km/h (0 Bft) SW 0.00 h 0 W/m 10.0 C 10.5 C 2.6 km/h (1 Bft)
29.04.2008 00:00 10.0 C 98 % 1008.1 hPa 0.6 l/m 6.1 km/h (2 Bft) W 0.00 h 0 W/m 9.6 C 9.5 C 10.0 km/h (2 Bft)
29.04.2008 01:00 9.2 C 94 % 1008.0 hPa 0.6 l/m 12.2 km/h (2 Bft) W-NW 0.00 h 0 W/m 8.3 C 7.4 C 18.7 km/h (3 Bft)
29.04.2008 02:00 8.8 C 92 % 1008.0 hPa 0.2 l/m 13.2 km/h (3 Bft) W-NW 0.00 h 0 W/m 7.6 C 6.7 C 19.7 km/h (3 Bft)
29.04.2008 03:00 8.2 C 90 % 1008.3 hPa 0.0 l/m 9.4 km/h (2 Bft) W 0.00 h 0 W/m 6.7 C 6.7 C 14.6 km/h (3 Bft)
29.04.2008 04:00 8.0 C 90 % 1008.5 hPa 0.0 l/m 5.5 km/h (1 Bft) W 0.00 h 0 W/m 6.5 C 7.3 C 9.1 km/h (2 Bft)
29.04.2008 05:00 7.8 C 91 % 1008.6 hPa 0.0 l/m 2.1 km/h (1 Bft) W-SW 0.00 h 0 W/m 6.4 C 7.7 C 4.4 km/h (1 Bft)
29.04.2008 06:00 7.6 C 92 % 1008.8 hPa 0.0 l/m 1.5 km/h (1 Bft) S 0.00 h 5 W/m 6.4 C 7.5 C 3.7 km/h (1 Bft)
29.04.2008 07:00 7.7 C 91 % 1008.8 hPa 0.0 l/m 2.2 km/h (1 Bft) S 0.00 h 15 W/m 6.4 C 7.7 C 5.0 km/h (1 Bft)
29.04.2008 08:00 8.4 C 92 % 1008.6 hPa 0.0 l/m 1.7 km/h (1 Bft) S-SO 0.00 h 107 W/m 7.2 C 8.4 C 4.3 km/h (1 Bft)
29.04.2008 09:00 9.5 C 89 % 1008.2 hPa 0.0 l/m 2.0 km/h (1 Bft) S-SO 0.25 h 259 W/m 7.7 C 9.5 C 4.7 km/h (1 Bft)
29.04.2008 10:00 10.8 C 76 % 1007.9 hPa 0.0 l/m 5.1 km/h (1 Bft) W-SW 0.30 h 354 W/m 6.8 C 10.8 C 8.7 km/h (2 Bft)
29.04.2008 11:00 10.9 C 74 % 1007.8 hPa 0.0 l/m 5.7 km/h (1 Bft) W 0.18 h 315 W/m 6.4 C 10.9 C 9.3 km/h (2 Bft)
29.04.2008 12:00 11.9 C 72 % 1007.4 hPa 0.0 l/m 4.5 km/h (1 Bft) S-SW 0.37 h 524 W/m 7.0 C 11.9 C 7.9 km/h (2 Bft)
29.04.2008 13:00 12.7 C 68 % 1006.8 hPa 0.0 l/m 3.6 km/h (1 Bft) W-SW 0.40 h 425 W/m 6.8 C 12.7 C 6.4 km/h (2 Bft)
29.04.2008 14:00 13.6 C 60 % 1006.5 hPa 0.0 l/m 2.4 km/h (1 Bft) W 0.50 h 535 W/m 6.0 C 13.6 C 4.3 km/h (1 Bft)
29.04.2008 15:00 15.3 C 53 % 1005.7 hPa 0.0 l/m 4.0 km/h (1 Bft) S 0.58 h 514 W/m 5.8 C 15.3 C 7.0 km/h (2 Bft)
29.04.2008 16:00 15.6 C 50 % 1005.1 hPa 0.0 l/m 2.6 km/h (1 Bft) S 0.73 h 532 W/m 5.3 C 15.6 C 4.8 km/h (1 Bft)
29.04.2008 17:00 16.3 C 46 % 1004.4 hPa 0.0 l/m 4.1 km/h (1 Bft) O-SO 1.00 h 484 W/m 4.8 C 16.3 C 7.0 km/h (2 Bft)
29.04.2008 18:00 15.9 C 46 % 1003.9 hPa 0.0 l/m 3.4 km/h (1 Bft) SO 0.67 h 247 W/m 4.1 C 15.9 C 6.0 km/h (2 Bft)
29.04.2008 19:00 14.1 C 56 % 1003.8 hPa 0.0 l/m 2.9 km/h (1 Bft) O-SO 0.15 h 68 W/m 5.3 C 14.1 C 5.0 km/h (1 Bft)
29.04.2008 20:00 12.3 C 69 % 1003.9 hPa 0.0 l/m 2.9 km/h (1 Bft) O-SO 0.35 h 26 W/m 6.7 C 12.3 C 4.6 km/h (1 Bft)
29.04.2008 21:00 10.2 C 79 % 1004.3 hPa 0.0 l/m 4.4 km/h (1 Bft) SO 0.00 h 0 W/m 6.7 C 10.1 C 6.1 km/h (2 Bft)
29.04.2008 22:00 8.9 C 82 % 1004.3 hPa 0.0 l/m 1.9 km/h (1 Bft) SO 0.00 h 0 W/m 6.0 C 8.8 C 2.9 km/h (1 Bft)
29.04.2008 23:00 7.8 C 87 % 1004.1 hPa 0.0 l/m 0.0 km/h (0 Bft) N 0.00 h 0 W/m 5.7 C 7.8 C 0.1 km/h (0 Bft)
30.04.2008 00:00 6.8 C 90 % 1004.0 hPa 0.0 l/m 0.2 km/h (0 Bft) SO 0.00 h 0 W/m 5.2 C 6.8 C 0.6 km/h (0 Bft)
30.04.2008 01:00 6.2 C 91 % 1003.8 hPa 0.0 l/m 0.6 km/h (0 Bft) SO 0.00 h 0 W/m 4.9 C 6.2 C 1.8 km/h (1 Bft)
30.04.2008 02:00 5.3 C 93 % 1003.4 hPa 0.0 l/m 1.4 km/h (1 Bft) SO 0.00 h 0 W/m 4.3 C 5.3 C 2.2 km/h (1 Bft)
30.04.2008 03:00 5.1 C 95 % 1003.0 hPa 0.0 l/m 0.9 km/h (0 Bft) O 0.00 h 0 W/m 4.2 C 5.1 C 1.9 km/h (1 Bft)
30.04.2008 04:00 4.5 C 96 % 1002.8 hPa 0.0 l/m 1.6 km/h (1 Bft) O 0.00 h 0 W/m 3.9 C 4.5 C 2.8 km/h (1 Bft)
30.04.2008 05:00 4.5 C 97 % 1002.6 hPa 0.0 l/m 0.4 km/h (0 Bft) O 0.00 h 0 W/m 4.0 C 4.5 C 0.8 km/h (0 Bft)
30.04.2008 06:00 4.7 C 97 % 1002.4 hPa 0.0 l/m 0.4 km/h (0 Bft) O 0.03 h 18 W/m 4.3 C 4.7 C 0.6 km/h (0 Bft)
30.04.2008 07:00 5.6 C 97 % 1002.0 hPa 0.0 l/m 0.4 km/h (0 Bft) O 0.00 h 51 W/m 5.2 C 5.6 C 1.2 km/h (1 Bft)
30.04.2008 08:00 7.4 C 90 % 1001.7 hPa 0.0 l/m 1.2 km/h (1 Bft) N-NO 0.15 h 176 W/m 5.9 C 7.4 C 2.9 km/h (1 Bft)
30.04.2008 09:00 9.2 C 84 % 1001.1 hPa 0.0 l/m 0.3 km/h (0 Bft) N-NO 0.00 h 206 W/m 6.5 C 9.2 C 1.3 km/h (1 Bft)
30.04.2008 10:00 10.8 C 77 % 1001.6 hPa 0.0 l/m 4.1 km/h (1 Bft) W-NW 0.03 h 270 W/m 6.8 C 10.8 C 6.9 km/h (2 Bft)
30.04.2008 11:00 12.8 C 69 % 1001.8 hPa 0.0 l/m 1.5 km/h (1 Bft) SO 0.18 h 356 W/m 7.4 C 12.8 C 3.4 km/h (1 Bft)
30.04.2008 12:00 15.1 C 57 % 1001.4 hPa 0.0 l/m 8.8 km/h (2 Bft) W-NW 0.62 h 533 W/m 6.7 C 15.1 C 13.6 km/h (3 Bft)
30.04.2008 13:00 16.6 C 50 % 1001.1 hPa 0.0 l/m 12.7 km/h (3 Bft) W 0.85 h 742 W/m 6.1 C 16.6 C 19.9 km/h (4 Bft)
30.04.2008 14:00 13.0 C 64 % 1002.9 hPa 0.2 l/m 27.1 km/h (4 Bft) W-NW 0.37 h 390 W/m 6.2 C 13.0 C 40.0 km/h (6 Bft)
30.04.2008 15:00 8.7 C 86 % 1005.8 hPa 1.6 l/m 17.0 km/h (3 Bft) W 0.00 h 53 W/m 6.4 C 6.6 C 26.5 km/h (4 Bft)
30.04.2008 16:00 8.2 C 93 % 1007.0 hPa 0.2 l/m 7.1 km/h (2 Bft) W 0.00 h 118 W/m 7.2 C 7.2 C 11.3 km/h (2 Bft)
30.04.2008 17:00 9.1 C 92 % 1007.6 hPa 0.0 l/m 4.8 km/h (1 Bft) S-SW 0.00 h 160 W/m 7.8 C 8.6 C 9.5 km/h (2 Bft)
30.04.2008 18:00 8.6 C 89 % 1008.0 hPa 0.0 l/m 3.4 km/h (1 Bft) SW 0.00 h 61 W/m 6.9 C 8.4 C 6.9 km/h (2 Bft)
30.04.2008 19:00 8.7 C 88 % 1008.5 hPa 0.0 l/m 0.3 km/h (0 Bft) S 0.00 h 35 W/m 6.9 C 8.7 C 1.3 km/h (1 Bft)
30.04.2008 20:00 8.7 C 88 % 1008.6 hPa 0.0 l/m 0.5 km/h (0 Bft) S 0.00 h 15 W/m 6.8 C 8.7 C 1.6 km/h (1 Bft)
30.04.2008 21:00 8.1 C 88 % 1009.1 hPa 0.0 l/m 1.0 km/h (0 Bft) SO 0.00 h 0 W/m 6.3 C 8.1 C 2.2 km/h (1 Bft)
30.04.2008 22:00 8.0 C 88 % 1009.6 hPa 0.0 l/m 1.4 km/h (1 Bft) S-SO 0.00 h 0 W/m 6.1 C 7.9 C 2.5 km/h (1 Bft)
30.04.2008 23:00 7.0 C 91 % 1009.8 hPa 0.0 l/m 1.7 km/h (1 Bft) S-SO 0.00 h 0 W/m 5.7 C 7.0 C 2.9 km/h (1 Bft)
01.05.2008 00:00 6.7 C 94 % 1010.3 hPa 0.0 l/m 0.1 km/h (0 Bft) SO 0.00 h 0 W/m 5.9 C 6.7 C 0.7 km/h (0 Bft)
01.05.2008 01:00 6.4 C 96 % 1010.6 hPa 0.0 l/m 0.1 km/h (0 Bft) SO 0.00 h 0 W/m 5.9 C 6.4 C 0.8 km/h (0 Bft)
01.05.2008 02:00 6.0 C 98 % 1011.2 hPa 0.0 l/m 0.1 km/h (0 Bft) SO 0.00 h 0 W/m 5.7 C 6.0 C 0.6 km/h (0 Bft)
01.05.2008 03:00 5.8 C 99 % 1011.6 hPa 0.0 l/m 0.2 km/h (0 Bft) SO 0.00 h 0 W/m 5.6 C 5.8 C 0.8 km/h (0 Bft)
01.05.2008 04:00 5.7 C 99 % 1012.0 hPa 0.0 l/m 0.1 km/h (0 Bft) SO 0.00 h 0 W/m 5.5 C 5.7 C 0.7 km/h (0 Bft)
01.05.2008 05:00 4.8 C 99 % 1012.6 hPa 0.0 l/m 0.2 km/h (0 Bft) SO 0.00 h 0 W/m 4.7 C 4.8 C 0.7 km/h (0 Bft)
01.05.2008 06:00 4.6 C 99 % 1013.3 hPa 0.0 l/m 0.4 km/h (0 Bft) SO 0.22 h 25 W/m 4.4 C 4.6 C 1.0 km/h (0 Bft)
01.05.2008 07:00 5.3 C 99 % 1014.3 hPa 0.0 l/m 0.3 km/h (0 Bft) O-SO 0.02 h 68 W/m 5.2 C 5.3 C 1.3 km/h (1 Bft)
01.05.2008 08:00 6.6 C 98 % 1014.6 hPa 0.0 l/m 1.6 km/h (1 Bft) O-SO 0.10 h 149 W/m 6.3 C 6.6 C 3.4 km/h (1 Bft)
01.05.2008 09:00 9.0 C 87 % 1015.0 hPa 0.0 l/m 0.6 km/h (0 Bft) NW 0.67 h 408 W/m 7.0 C 9.0 C 1.9 km/h (1 Bft)
01.05.2008 10:00 10.2 C 84 % 1015.3 hPa 0.6 l/m 2.9 km/h (1 Bft) S-SW 0.27 h 317 W/m 7.7 C 10.2 C 5.9 km/h (2 Bft)
01.05.2008 11:00 12.2 C 74 % 1015.3 hPa 0.0 l/m 4.9 km/h (1 Bft) S-SO 0.87 h 713 W/m 7.7 C 12.2 C 9.7 km/h (2 Bft)
01.05.2008 12:00 13.2 C 64 % 1015.1 hPa 0.0 l/m 6.7 km/h (2 Bft) S-SO 0.52 h 628 W/m 6.5 C 13.2 C 11.7 km/h (2 Bft)
01.05.2008 13:00 11.4 C 79 % 1015.3 hPa 2.0 l/m 5.0 km/h (1 Bft) N 0.40 h 489 W/m 7.9 C 11.3 C 8.2 km/h (2 Bft)
01.05.2008 14:00 13.5 C 70 % 1015.0 hPa 0.0 l/m 0.8 km/h (0 Bft) N 0.42 h 479 W/m 8.1 C 13.5 C 2.2 km/h (1 Bft)
01.05.2008 15:00 12.4 C 71 % 1015.5 hPa 0.4 l/m 6.1 km/h (2 Bft) W 0.40 h 340 W/m 7.2 C 12.4 C 10.2 km/h (2 Bft)
01.05.2008 16:00 14.7 C 63 % 1015.2 hPa 0.0 l/m 0.7 km/h (0 Bft) N 0.78 h 518 W/m 7.6 C 14.7 C 2.3 km/h (1 Bft)
01.05.2008 17:00 16.1 C 52 % 1014.9 hPa 0.0 l/m 1.7 km/h (1 Bft) N-NO 1.00 h 440 W/m 6.1 C 16.1 C 3.9 km/h (1 Bft)
01.05.2008 18:00 16.2 C 50 % 1015.1 hPa 0.0 l/m 1.5 km/h (1 Bft) N 0.97 h 257 W/m 5.7 C 16.2 C 3.4 km/h (1 Bft)
01.05.2008 19:00 14.7 C 55 % 1015.5 hPa 0.0 l/m 0.5 km/h (0 Bft) NO 0.03 h 54 W/m 5.6 C 14.7 C 1.2 km/h (1 Bft)
01.05.2008 20:00 12.6 C 70 % 1016.5 hPa 0.0 l/m 0.7 km/h (0 Bft) NO 0.00 h 15 W/m 7.2 C 12.6 C 1.3 km/h (1 Bft)
01.05.2008 21:00 11.4 C 76 % 1017.2 hPa 0.0 l/m 0.5 km/h (0 Bft) NO 0.00 h 0 W/m 7.3 C 11.4 C 1.4 km/h (1 Bft)
01.05.2008 22:00 10.0 C 78 % 1017.9 hPa 0.0 l/m 2.8 km/h (1 Bft) O-SO 0.00 h 0 W/m 6.4 C 10.0 C 4.0 km/h (1 Bft)
01.05.2008 23:00 8.7 C 83 % 1018.5 hPa 0.0 l/m 2.9 km/h (1 Bft) O-SO 0.00 h 0 W/m 6.0 C 8.5 C 4.3 km/h (1 Bft)
02.05.2008 00:00 7.7 C 86 % 1019.1 hPa 0.0 l/m 2.4 km/h (1 Bft) O-SO 0.00 h 0 W/m 5.5 C 7.5 C 3.5 km/h (1 Bft)
02.05.2008 01:00 7.6 C 88 % 1019.6 hPa 0.0 l/m 0.3 km/h (0 Bft) O-SO 0.00 h 0 W/m 5.7 C 7.6 C 0.7 km/h (0 Bft)
02.05.2008 02:00 7.6 C 88 % 1019.8 hPa 0.0 l/m 1.3 km/h (1 Bft) O-SO 0.00 h 0 W/m 5.7 C 7.6 C 2.2 km/h (1 Bft)
02.05.2008 03:00 6.8 C 91 % 1020.1 hPa 0.0 l/m 0.5 km/h (0 Bft) O-SO 0.00 h 0 W/m 5.5 C 6.7 C 0.7 km/h (0 Bft)
02.05.2008 04:00 6.1 C 94 % 1020.6 hPa 0.0 l/m 2.5 km/h (1 Bft) O-SO 0.00 h 0 W/m 5.2 C 6.0 C 3.5 km/h (1 Bft)
02.05.2008 05:00 6.0 C 94 % 1020.9 hPa 0.0 l/m 0.5 km/h (0 Bft) O-SO 0.00 h 0 W/m 5.1 C 6.0 C 1.4 km/h (1 Bft)
02.05.2008 06:00 5.3 C 96 % 1021.4 hPa 0.0 l/m 0.5 km/h (0 Bft) NW 0.00 h 21 W/m 4.7 C 5.3 C 1.0 km/h (0 Bft)
02.05.2008 07:00 6.2 C 96 % 1022.6 hPa 0.0 l/m 0.3 km/h (0 Bft) NW 0.23 h 100 W/m 5.5 C 6.2 C 0.7 km/h (0 Bft)
02.05.2008 08:00 8.5 C 88 % 1023.1 hPa 0.0 l/m 0.4 km/h (0 Bft) NW 0.98 h 322 W/m 6.6 C 8.5 C 1.3 km/h (1 Bft)
02.05.2008 09:00 11.1 C 77 % 1023.1 hPa 0.0 l/m 0.6 km/h (0 Bft) NW 1.00 h 477 W/m 7.3 C 11.1 C 1.9 km/h (1 Bft)
02.05.2008 10:00 13.7 C 67 % 1022.9 hPa 0.0 l/m 1.6 km/h (1 Bft) NW 1.00 h 637 W/m 7.7 C 13.7 C 3.3 km/h (1 Bft)
02.05.2008 11:00 16.1 C 59 % 1022.6 hPa 0.0 l/m 1.8 km/h (1 Bft) O-SO 1.00 h 762 W/m 8.1 C 16.1 C 4.0 km/h (1 Bft)
02.05.2008 12:00 17.3 C 47 % 1022.0 hPa 0.0 l/m 3.4 km/h (1 Bft) SO 0.77 h 647 W/m 5.9 C 17.3 C 5.8 km/h (2 Bft)
02.05.2008 13:00 18.7 C 44 % 1021.8 hPa 0.0 l/m 2.4 km/h (1 Bft) N 0.88 h 774 W/m 6.2 C 18.7 C 4.6 km/h (1 Bft)
02.05.2008 14:00 19.8 C 42 % 1021.4 hPa 0.0 l/m 4.0 km/h (1 Bft) W 0.68 h 694 W/m 6.4 C 19.8 C 6.7 km/h (2 Bft)
02.05.2008 15:00 20.1 C 38 % 1021.4 hPa 0.0 l/m 8.8 km/h (2 Bft) W 0.60 h 587 W/m 5.5 C 20.1 C 13.8 km/h (3 Bft)
02.05.2008 16:00 21.0 C 36 % 1021.3 hPa 0.0 l/m 8.4 km/h (2 Bft) W 0.93 h 623 W/m 5.2 C 21.0 C 13.6 km/h (3 Bft)
02.05.2008 17:00 19.8 C 38 % 1021.3 hPa 0.0 l/m 8.7 km/h (2 Bft) W 0.48 h 311 W/m 5.1 C 19.8 C 13.3 km/h (3 Bft)
02.05.2008 18:00 19.2 C 41 % 1021.5 hPa 0.0 l/m 5.5 km/h (1 Bft) W 0.52 h 174 W/m 5.7 C 19.2 C 8.5 km/h (2 Bft)
02.05.2008 19:00 19.0 C 41 % 1021.4 hPa 0.0 l/m 6.0 km/h (2 Bft) W-NW 0.43 h 100 W/m 5.4 C 19.0 C 9.3 km/h (2 Bft)
02.05.2008 20:00 16.5 C 47 % 1021.7 hPa 0.0 l/m 2.2 km/h (1 Bft) W-NW 0.00 h 19 W/m 5.2 C 16.5 C 3.4 km/h (1 Bft)
02.05.2008 21:00 13.6 C 61 % 1022.4 hPa 0.0 l/m 0.5 km/h (0 Bft) S 0.00 h 0 W/m 6.2 C 13.6 C 1.2 km/h (1 Bft)
02.05.2008 22:00 11.7 C 72 % 1022.9 hPa 0.0 l/m 1.9 km/h (1 Bft) O-SO 0.00 h 0 W/m 6.8 C 11.7 C 3.1 km/h (1 Bft)
02.05.2008 23:00 10.6 C 78 % 1023.1 hPa 0.0 l/m 0.9 km/h (0 Bft) O 0.00 h 0 W/m 6.9 C 10.6 C 1.9 km/h (1 Bft)
03.05.2008 00:00 10.1 C 79 % 1023.4 hPa 0.0 l/m 0.6 km/h (0 Bft) O-SO 0.00 h 0 W/m 6.7 C 10.1 C 1.2 km/h (1 Bft)
03.05.2008 01:00 9.5 C 81 % 1023.5 hPa 0.0 l/m 0.7 km/h (0 Bft) O-SO 0.00 h 0 W/m 6.4 C 9.5 C 1.6 km/h (1 Bft)
03.05.2008 02:00 8.3 C 86 % 1023.6 hPa 0.0 l/m 0.5 km/h (0 Bft) O-SO 0.00 h 0 W/m 6.1 C 8.3 C 1.3 km/h (1 Bft)
03.05.2008 03:00 7.6 C 88 % 1023.5 hPa 0.0 l/m 0.8 km/h (0 Bft) O-SO 0.00 h 0 W/m 5.8 C 7.6 C 2.0 km/h (1 Bft)
03.05.2008 04:00 7.2 C 89 % 1023.7 hPa 0.0 l/m 0.9 km/h (0 Bft) O-SO 0.00 h 0 W/m 5.4 C 7.2 C 2.1 km/h (1 Bft)
03.05.2008 05:00 6.3 C 91 % 1023.6 hPa 0.0 l/m 1.0 km/h (0 Bft) O-SO 0.00 h 0 W/m 4.9 C 6.3 C 2.1 km/h (1 Bft)
03.05.2008 06:00 5.9 C 93 % 1024.1 hPa 0.0 l/m 0.6 km/h (0 Bft) O-SO 0.03 h 17 W/m 4.8 C 5.9 C 1.5 km/h (1 Bft)
03.05.2008 07:00 7.1 C 90 % 1024.7 hPa 0.0 l/m 0.3 km/h (0 Bft) O-SO 0.43 h 109 W/m 5.6 C 7.1 C 0.7 km/h (0 Bft)
03.05.2008 08:00 10.0 C 81 % 1024.8 hPa 0.0 l/m 0.0 km/h (0 Bft) O-SO 1.00 h 315 W/m 6.9 C 10.0 C 0.6 km/h (0 Bft)
03.05.2008 09:00 12.8 C 71 % 1024.8 hPa 0.0 l/m 1.1 km/h (0 Bft) O-SO 1.00 h 488 W/m 7.7 C 12.8 C 2.7 km/h (1 Bft)
03.05.2008 10:00 15.8 C 57 % 1024.5 hPa 0.0 l/m 2.7 km/h (1 Bft) O-SO 1.00 h 651 W/m 7.2 C 15.8 C 5.4 km/h (1 Bft)
03.05.2008 11:00 17.4 C 53 % 1024.1 hPa 0.0 l/m 2.7 km/h (1 Bft) O-SO 1.00 h 643 W/m 7.8 C 17.4 C 5.2 km/h (1 Bft)
03.05.2008 12:00 19.0 C 46 % 1023.6 hPa 0.0 l/m 3.0 km/h (1 Bft) SO 1.00 h 775 W/m 7.1 C 19.0 C 5.9 km/h (2 Bft)
03.05.2008 13:00 20.2 C 43 % 1023.3 hPa 0.0 l/m 3.9 km/h (1 Bft) W-NW 1.00 h 628 W/m 7.1 C 20.2 C 6.5 km/h (2 Bft)
03.05.2008 14:00 20.8 C 39 % 1022.9 hPa 0.0 l/m 4.6 km/h (1 Bft) W-NW 1.00 h 670 W/m 6.4 C 20.8 C 7.1 km/h (2 Bft)
03.05.2008 15:00 21.9 C 33 % 1022.5 hPa 0.0 l/m 5.1 km/h (1 Bft) W-NW 1.00 h 758 W/m 4.9 C 21.9 C 7.9 km/h (2 Bft)
03.05.2008 16:00 22.4 C 34 % 1021.9 hPa 0.0 l/m 2.2 km/h (1 Bft) W 0.92 h 531 W/m 5.8 C 22.4 C 4.6 km/h (1 Bft)
03.05.2008 17:00 22.2 C 33 % 1021.6 hPa 0.0 l/m 3.6 km/h (1 Bft) W-NW 1.00 h 416 W/m 5.2 C 22.2 C 6.0 km/h (2 Bft)
03.05.2008 18:00 21.5 C 36 % 1021.3 hPa 0.0 l/m 1.8 km/h (1 Bft) NW 1.00 h 241 W/m 5.7 C 21.5 C 3.8 km/h (1 Bft)
03.05.2008 19:00 21.3 C 35 % 1021.2 hPa 0.0 l/m 1.2 km/h (1 Bft) N-NO 1.00 h 175 W/m 5.1 C 21.3 C 3.0 km/h (1 Bft)
03.05.2008 20:00 18.3 C 46 % 1021.4 hPa 0.0 l/m 3.4 km/h (1 Bft) N-NO 0.05 h 21 W/m 6.3 C 18.3 C 4.9 km/h (1 Bft)
03.05.2008 21:00 15.6 C 57 % 1021.6 hPa 0.0 l/m 1.8 km/h (1 Bft) SO 0.00 h 0 W/m 6.9 C 15.6 C 3.0 km/h (1 Bft)
03.05.2008 22:00 14.0 C 64 % 1021.7 hPa 0.0 l/m 2.5 km/h (1 Bft) SO 0.00 h 0 W/m 7.3 C 14.0 C 3.8 km/h (1 Bft)
03.05.2008 23:00 13.0 C 69 % 1021.6 hPa 0.0 l/m 0.8 km/h (0 Bft) O-SO 0.00 h 0 W/m 7.5 C 13.0 C 1.6 km/h (1 Bft)
04.05.2008 00:00 12.2 C 73 % 1021.5 hPa 0.0 l/m 0.4 km/h (0 Bft) O-SO 0.00 h 0 W/m 7.4 C 12.2 C 1.5 km/h (1 Bft)
04.05.2008 01:00 11.4 C 76 % 1021.4 hPa 0.0 l/m 0.3 km/h (0 Bft) O-SO 0.00 h 0 W/m 7.4 C 11.4 C 0.8 km/h (0 Bft)
04.05.2008 02:00 10.4 C 79 % 1021.2 hPa 0.0 l/m 0.9 km/h (0 Bft) O-SO 0.00 h 0 W/m 6.9 C 10.4 C 2.0 km/h (1 Bft)
04.05.2008 03:00 9.5 C 82 % 1021.1 hPa 0.0 l/m 1.0 km/h (0 Bft) O-SO 0.00 h 0 W/m 6.7 C 9.5 C 2.2 km/h (1 Bft)
04.05.2008 04:00 8.5 C 86 % 1021.2 hPa 0.0 l/m 1.5 km/h (1 Bft) O-SO 0.00 h 0 W/m 6.3 C 8.5 C 2.8 km/h (1 Bft)
04.05.2008 05:00 7.9 C 87 % 1021.1 hPa 0.0 l/m 1.1 km/h (0 Bft) O-SO 0.00 h 0 W/m 5.9 C 7.9 C 2.2 km/h (1 Bft)
04.05.2008 06:00 7.5 C 89 % 1021.3 hPa 0.0 l/m 0.1 km/h (0 Bft) O-SO 0.05 h 20 W/m 5.8 C 7.5 C 0.6 km/h (0 Bft)
04.05.2008 07:00 8.5 C 88 % 1021.7 hPa 0.0 l/m 0.0 km/h (0 Bft) N 0.48 h 111 W/m 6.6 C 8.5 C 0.0 km/h (0 Bft)
04.05.2008 08:00 11.3 C 78 % 1021.7 hPa 0.0 l/m 0.4 km/h (0 Bft) O-SO 1.00 h 306 W/m 7.7 C 11.3 C 1.3 km/h (1 Bft)
04.05.2008 09:00 14.5 C 60 % 1021.5 hPa 0.0 l/m 2.3 km/h (1 Bft) O-NO 1.00 h 468 W/m 6.9 C 14.5 C 5.1 km/h (1 Bft)
04.05.2008 10:00 16.3 C 58 % 1021.1 hPa 0.0 l/m 2.4 km/h (1 Bft) O-SO 1.00 h 630 W/m 8.1 C 16.3 C 5.1 km/h (1 Bft)
04.05.2008 11:00 18.0 C 54 % 1020.7 hPa 0.0 l/m 3.6 km/h (1 Bft) O-SO 1.00 h 747 W/m 8.7 C 18.0 C 6.7 km/h (2 Bft)
04.05.2008 12:00 19.8 C 51 % 1020.0 hPa 0.0 l/m 3.4 km/h (1 Bft) O-SO 1.00 h 816 W/m 9.2 C 19.8 C 6.8 km/h (2 Bft)
04.05.2008 13:00 20.8 C 48 % 1019.5 hPa 0.0 l/m 6.6 km/h (2 Bft) O-SO 1.00 h 827 W/m 9.3 C 20.8 C 11.7 km/h (2 Bft)
04.05.2008 14:00 21.5 C 43 % 1019.1 hPa 0.0 l/m 5.9 km/h (2 Bft) O-SO 1.00 h 775 W/m 8.5 C 21.5 C 10.5 km/h (2 Bft)
04.05.2008 15:00 22.5 C 41 % 1018.7 hPa 0.0 l/m 4.5 km/h (1 Bft) O-SO 1.00 h 777 W/m 8.5 C 22.5 C 7.9 km/h (2 Bft)
04.05.2008 16:00 21.7 C 42 % 1018.4 hPa 0.0 l/m 5.2 km/h (1 Bft) O-SO 0.52 h 428 W/m 8.2 C 21.7 C 8.8 km/h (2 Bft)
04.05.2008 17:00 20.8 C 43 % 1018.4 hPa 0.0 l/m 3.8 km/h (1 Bft) O-SO 0.08 h 180 W/m 7.8 C 20.8 C 7.1 km/h (2 Bft)
04.05.2008 18:00 20.2 C 46 % 1018.4 hPa 0.0 l/m 0.8 km/h (0 Bft) O-SO 0.00 h 80 W/m 8.1 C 20.2 C 2.6 km/h (1 Bft)
04.05.2008 19:00 19.6 C 46 % 1018.5 hPa 0.0 l/m 0.9 km/h (0 Bft) O-NO 0.00 h 36 W/m 7.8 C 19.6 C 3.3 km/h (1 Bft)
04.05.2008 20:00 18.6 C 48 % 1018.7 hPa 0.0 l/m 0.5 km/h (0 Bft) O-NO 0.00 h 9 W/m 7.5 C 18.6 C 2.9 km/h (1 Bft)
04.05.2008 21:00 17.5 C 51 % 1019.3 hPa 0.0 l/m 0.8 km/h (0 Bft) NO 0.00 h 0 W/m 7.2 C 17.5 C 2.9 km/h (1 Bft)
04.05.2008 22:00 16.2 C 53 % 1019.8 hPa 0.0 l/m 2.2 km/h (1 Bft) NO 0.00 h 0 W/m 6.6 C 16.2 C 5.7 km/h (1 Bft)
04.05.2008 23:00 14.7 C 58 % 1019.9 hPa 0.0 l/m 0.9 km/h (0 Bft) N-NO 0.00 h 0 W/m 6.5 C 14.7 C 2.6 km/h (1 Bft)
Min-Datum _ 30.04.08 03.05.08 30.04.08 - 28.04.08 - - - 29.04.08 30.04.08 28.04.08
_ Min-Zeit 04:04 15:21 09:45 - 00:00 - - - 19:21 04:07 00:01
Minimum _ 4.2 C 29 % 1000.9 hPa - 0.0 km/h (0 Bft) - - - 2.3 C 3.2 C 0.0 km/h (0 Bft)
Max-Datum _ 04.05.08 01.05.08 03.05.08 01.05.08 30.04.08 - 28.04.08 01.05.08 28.04.08 04.05.08 30.04.08
_ Max-Zeit 15:26 07:12 08:15 13:04 14:18 - 06:26 12:29 17:10 15:26 14:27
Maximum _ 23.4 C 100 % 1024.9 hPa 2.0 l/m 40.0 km/h
W-NW (6 Bft)
- 0.02 h 1116 W/m 12.5 C 23.4 C 57.4 km/h
W-NW (7 Bft)
Durchschnitt _ 12.1 C 74 % 1014.5 hPa #11.4 l/m 2.9 km/h (1 Bft) O-SO #49:08 h 333 W/m 6.8 C 12.1 C 5.1 km/h (1 Bft)
© Kaiko 2008